Twin Hills, Oklahoma
Current Conditions -  °F | °C
As of 4:15 AM on Thursday 29 Jan 2015 (Local Time) from KOKM Reporting Station
Clear Clear  
Wind Chill: 56°   Ceiling: Unl
Heat Index: 56°   Visibility: 10mi
Dew Point: 34°   Wind: 8mph
Humidity: 43%   Direction: 330°NNW
Pressure: 30.09"   Gusts: NA
Location:  35.6454°N, 96.0285°W
Report Text: KOKM 291015Z AUTO 33007KT 10SM CLR 13/01 A3009 RMK AO2 T01330010
Loading
Personal Weather Stations






























Interactive Weather Map New forecast layout! Learn more

10-Day Weather Forecast

Advertisements
Track Severe Weather on mobile